Allison, Pennsylvania
Current Conditions -  °F | °C
As of 12:53 PM on Saturday 20 Dec 2014 (Local Time) from KMGW Reporting Station
Scattered Clouds Scattered Clouds  
Wind Chill: 34°   Ceiling: Unl
Heat Index: 34°   Visibility: 10mi
Dew Point: 19°   Wind: 0mph
Humidity: 54%   Direction: NA
Pressure: 30.21"   Gusts: NA
Location:  39.99°N, 79.86°W
Report Text: KMGW 201753Z 00000KT 10SM SCT100 01/M07 A3021 RMK AO2 SLP244 T00111072 10011 21022 58016
Loading
Personal Weather Stations






























Interactive Weather Map New forecast layout! Learn more

10-Day Weather Forecast

Advertisements
Track Severe Weather on mobile